Terminal Aerodrome Forecast
Issued by NWS

Current Version | Previous Version | Text Only | Print | Product List | Glossary Off
Versions: 1 2 3 4 5 6 7 8 9 10 11 12 13 14 15 16 17 18 19 20 21 22 23

000
FTUS41 KILN 020500
TAFLCK
TAF
KLCK 020537Z 0206/0306 20007KT P6SM SCT035 BKN250
     FM021000 24005KT P6SM VCTS BKN080CB
     FM021200 24005KT P6SM -SHRA VCTS OVC040CB
      TEMPO 0212/0214 3SM -TSRA OVC025CB
     FM021500 22008KT P6SM VCSH BKN040
     FM021800 23012KT P6SM VCTS BKN040CB
     FM022200 23008KT P6SM SCT040
     FM030000 21005KT P6SM SCT250=

USA.gov is the U.S. government's official web portal to all federal, state and local government web resources and services.